sensor_id;sensor_type;location;lat;lon;timestamp;pressure;altitude;pressure_sealevel;temperature;humidity
50250;BME280;36133;42.522;27.456;2022-07-17T00:00:36;101264.91;;;26.43;55.46
50250;BME280;36133;42.522;27.456;2022-07-17T00:03:05;101250.53;;;26.00;55.94
50250;BME280;36133;42.522;27.456;2022-07-17T00:05:31;101142.63;;;26.00;54.47
50250;BME280;36133;42.522;27.456;2022-07-17T00:07:56;101375.59;;;26.79;55.82
50250;BME280;36133;42.522;27.456;2022-07-17T00:10:22;101288.41;;;25.69;57.25
50250;BME280;36133;42.522;27.456;2022-07-17T00:12:47;101412.13;;;26.25;57.56
50250;BME280;36133;42.522;27.456;2022-07-17T00:15:13;101119.19;;;24.34;58.16
50250;BME280;36133;42.522;27.456;2022-07-17T00:17:38;101430.28;;;25.70;59.63
50250;BME280;36133;42.522;27.456;2022-07-17T00:20:05;101425.44;;;26.38;57.63
50250;BME280;36133;42.522;27.456;2022-07-17T00:22:31;101226.03;;;25.06;57.02
50250;BME280;36133;42.522;27.456;2022-07-17T00:24:56;101366.03;;;25.53;58.41
50250;BME280;36133;42.522;27.456;2022-07-17T00:27:22;101272.31;;;25.46;56.76
50250;BME280;36133;42.522;27.456;2022-07-17T00:29:47;101198.50;;;25.41;55.49
50250;BME280;36133;42.522;27.456;2022-07-17T00:32:13;101355.41;;;26.38;55.08
50250;BME280;36133;42.522;27.456;2022-07-17T00:34:38;101299.78;;;26.29;54.38
50250;BME280;36133;42.522;27.456;2022-07-17T00:37:04;101166.41;;;25.30;54.18
50250;BME280;36133;42.522;27.456;2022-07-17T00:39:29;101363.69;;;26.53;54.11
50250;BME280;36133;42.522;27.456;2022-07-17T00:41:56;101130.00;;;23.98;56.20
50250;BME280;36133;42.522;27.456;2022-07-17T00:44:26;101411.41;;;25.57;56.36
50250;BME280;36133;42.522;27.456;2022-07-17T00:46:52;101427.94;;;26.29;53.99
50250;BME280;36133;42.522;27.456;2022-07-17T00:49:17;101435.59;;;26.02;54.73
50250;BME280;36133;42.522;27.456;2022-07-17T00:51:43;101327.31;;;24.90;55.54
50250;BME280;36133;42.522;27.456;2022-07-17T00:54:08;101401.44;;;25.61;55.10
50250;BME280;36133;42.522;27.456;2022-07-17T00:56:37;101216.75;;;24.22;55.85
50250;BME280;36133;42.522;27.456;2022-07-17T00:59:03;101311.44;;;23.96;57.86
50250;BME280;36133;42.522;27.456;2022-07-17T01:01:30;101198.88;;;23.29;58.04
50250;BME280;36133;42.522;27.456;2022-07-17T01:03:56;101357.56;;;24.33;58.56
50250;BME280;36133;42.522;27.456;2022-07-17T01:06:21;101381.50;;;24.59;58.18
50250;BME280;36133;42.522;27.456;2022-07-17T01:08:47;101414.03;;;25.31;55.91
50250;BME280;36133;42.522;27.456;2022-07-17T01:11:12;101317.50;;;24.62;56.52
50250;BME280;36133;42.522;27.456;2022-07-17T01:13:38;101409.75;;;25.61;55.13
50250;BME280;36133;42.522;27.456;2022-07-17T01:16:04;101044.81;;;23.17;55.39
50250;BME280;36133;42.522;27.456;2022-07-17T01:18:30;101416.88;;;25.47;55.58
50250;BME280;36133;42.522;27.456;2022-07-17T01:20:55;101424.75;;;25.75;54.58
50250;BME280;36133;42.522;27.456;2022-07-17T01:23:21;101383.16;;;24.97;55.78
50250;BME280;36133;42.522;27.456;2022-07-17T01:25:47;101408.41;;;25.11;55.90
50250;BME280;36133;42.522;27.456;2022-07-17T01:28:13;101251.72;;;24.12;56.06
50250;BME280;36133;42.522;27.456;2022-07-17T01:30:49;101348.72;;;24.68;56.04
50250;BME280;36133;42.522;27.456;2022-07-17T01:33:15;101373.72;;;24.93;55.90
50250;BME280;36133;42.522;27.456;2022-07-17T01:35:40;101159.09;;;23.79;55.38
50250;BME280;36133;42.522;27.456;2022-07-17T01:38:06;101371.50;;;24.85;55.61
50250;BME280;36133;42.522;27.456;2022-07-17T01:40:32;101293.84;;;24.02;56.59
50250;BME280;36133;42.522;27.456;2022-07-17T01:42:57;101220.59;;;23.79;56.27
50250;BME280;36133;42.522;27.456;2022-07-17T01:45:23;101417.56;;;24.79;56.65
50250;BME280;36133;42.522;27.456;2022-07-17T01:47:48;101210.59;;;23.46;56.99
50250;BME280;36133;42.522;27.456;2022-07-17T01:50:15;101399.09;;;24.85;56.70
50250;BME280;36133;42.522;27.456;2022-07-17T01:52:42;101312.19;;;24.18;56.69
50250;BME280;36133;42.522;27.456;2022-07-17T01:55:10;101258.56;;;24.36;55.58
50250;BME280;36133;42.522;27.456;2022-07-17T01:57:37;101393.44;;;25.64;54.08
50250;BME280;36133;42.522;27.456;2022-07-17T02:00:05;101050.63;;;23.26;54.45
50250;BME280;36133;42.522;27.456;2022-07-17T02:02:31;101194.03;;;24.05;54.94
50250;BME280;36133;42.522;27.456;2022-07-17T02:04:56;101219.88;;;24.31;54.83
50250;BME280;36133;42.522;27.456;2022-07-17T02:07:22;101119.34;;;23.10;56.30
50250;BME280;36133;42.522;27.456;2022-07-17T02:09:48;101181.19;;;23.25;56.54
50250;BME280;36133;42.522;27.456;2022-07-17T02:12:13;100871.41;;;21.72;55.86
50250;BME280;36133;42.522;27.456;2022-07-17T02:14:39;101076.84;;;23.28;54.74
50250;BME280;36133;42.522;27.456;2022-07-17T02:17:04;101317.19;;;24.59;55.96
50250;BME280;36133;42.522;27.456;2022-07-17T02:19:30;101411.94;;;24.69;56.82
50250;BME280;36133;42.522;27.456;2022-07-17T02:21:55;100977.53;;;21.56;58.28
50250;BME280;36133;42.522;27.456;2022-07-17T02:24:21;101076.78;;;22.20;58.35
50250;BME280;36133;42.522;27.456;2022-07-17T02:26:46;101109.41;;;22.56;57.91
50250;BME280;36133;42.522;27.456;2022-07-17T02:29:12;101157.16;;;22.66;58.46
50250;BME280;36133;42.522;27.456;2022-07-17T02:31:37;101097.63;;;22.60;57.14
50250;BME280;36133;42.522;27.456;2022-07-17T02:34:03;101399.38;;;23.92;59.18
50250;BME280;36133;42.522;27.456;2022-07-17T02:36:28;101120.53;;;21.83;61.10
50250;BME280;36133;42.522;27.456;2022-07-17T02:38:54;101366.41;;;23.32;61.20
50250;BME280;36133;42.522;27.456;2022-07-17T02:41:20;101325.03;;;23.05;62.28
50250;BME280;36133;42.522;27.456;2022-07-17T02:43:45;101085.41;;;21.52;62.57
50250;BME280;36133;42.522;27.456;2022-07-17T02:46:11;101138.69;;;21.51;62.33
50250;BME280;36133;42.522;27.456;2022-07-17T02:48:39;101287.75;;;22.59;61.38
50250;BME280;36133;42.522;27.456;2022-07-17T02:51:05;101009.88;;;20.70;60.92
50250;BME280;36133;42.522;27.456;2022-07-17T02:53:31;101147.66;;;21.97;59.78
50250;BME280;36133;42.522;27.456;2022-07-17T02:55:57;101298.72;;;23.14;58.81
50250;BME280;36133;42.522;27.456;2022-07-17T02:58:23;101119.94;;;21.81;59.66
50250;BME280;36133;42.522;27.456;2022-07-17T03:00:49;101221.66;;;22.37;59.42
50250;BME280;36133;42.522;27.456;2022-07-17T03:03:14;101142.41;;;21.95;59.01
50250;BME280;36133;42.522;27.456;2022-07-17T03:05:40;101420.38;;;23.98;57.45
50250;BME280;36133;42.522;27.456;2022-07-17T03:08:05;101359.84;;;23.82;57.21
50250;BME280;36133;42.522;27.456;2022-07-17T03:10:31;101286.44;;;23.76;55.57
50250;BME280;36133;42.522;27.456;2022-07-17T03:12:56;101167.34;;;23.47;54.50
50250;BME280;36133;42.522;27.456;2022-07-17T03:15:22;101141.78;;;23.51;53.76
50250;BME280;36133;42.522;27.456;2022-07-17T03:17:48;101129.91;;;23.19;53.79
50250;BME280;36133;42.522;27.456;2022-07-17T03:20:13;101121.53;;;23.67;52.73
50250;BME280;36133;42.522;27.456;2022-07-17T03:22:39;101282.19;;;24.69;52.38
50250;BME280;36133;42.522;27.456;2022-07-17T03:25:05;101167.66;;;23.82;52.23
50250;BME280;36133;42.522;27.456;2022-07-17T03:27:31;101333.13;;;24.94;51.38
50250;BME280;36133;42.522;27.456;2022-07-17T03:29:56;101375.97;;;24.54;53.56
50250;BME280;36133;42.522;27.456;2022-07-17T03:32:22;101400.88;;;24.32;54.49
50250;BME280;36133;42.522;27.456;2022-07-17T03:34:47;101357.88;;;23.55;55.70
50250;BME280;36133;42.522;27.456;2022-07-17T03:37:13;101337.34;;;23.46;55.16
50250;BME280;36133;42.522;27.456;2022-07-17T03:39:38;101394.94;;;24.18;54.06
50250;BME280;36133;42.522;27.456;2022-07-17T03:42:04;101400.72;;;24.44;53.47
50250;BME280;36133;42.522;27.456;2022-07-17T03:44:30;101330.63;;;23.86;53.74
50250;BME280;36133;42.522;27.456;2022-07-17T03:46:55;101239.31;;;22.79;55.16
50250;BME280;36133;42.522;27.456;2022-07-17T03:49:21;101237.66;;;23.00;54.35
50250;BME280;36133;42.522;27.456;2022-07-17T03:51:47;101215.41;;;23.02;53.86
50250;BME280;36133;42.522;27.456;2022-07-17T03:54:13;101020.44;;;22.23;53.03
50250;BME280;36133;42.522;27.456;2022-07-17T03:56:38;101332.38;;;23.65;54.17
50250;BME280;36133;42.522;27.456;2022-07-17T03:59:04;101342.63;;;23.26;55.74
50250;BME280;36133;42.522;27.456;2022-07-17T04:01:29;101266.72;;;23.13;55.13
50250;BME280;36133;42.522;27.456;2022-07-17T04:03:55;101211.41;;;23.15;54.39
50250;BME280;36133;42.522;27.456;2022-07-17T04:06:21;101204.59;;;23.22;53.51
50250;BME280;36133;42.522;27.456;2022-07-17T04:08:46;101455.16;;;24.86;53.35
50250;BME280;36133;42.522;27.456;2022-07-17T04:11:12;101449.41;;;24.92;52.63
50250;BME280;36133;42.522;27.456;2022-07-17T04:13:38;101377.31;;;24.89;51.61
50250;BME280;36133;42.522;27.456;2022-07-17T04:16:04;101408.41;;;25.11;51.55
50250;BME280;36133;42.522;27.456;2022-07-17T04:18:31;101448.53;;;25.71;51.89
50250;BME280;36133;42.522;27.456;2022-07-17T04:20:58;101285.34;;;24.41;52.22
50250;BME280;36133;42.522;27.456;2022-07-17T04:23:24;101245.53;;;24.32;52.30
50250;BME280;36133;42.522;27.456;2022-07-17T04:25:50;101179.13;;;24.01;51.73
50250;BME280;36133;42.522;27.456;2022-07-17T04:28:16;101267.03;;;24.30;52.45
50250;BME280;36133;42.522;27.456;2022-07-17T04:30:42;101475.91;;;25.73;52.10
50250;BME280;36133;42.522;27.456;2022-07-17T04:33:08;101173.91;;;24.05;51.76
50250;BME280;36133;42.522;27.456;2022-07-17T04:35:34;101339.31;;;25.06;51.68
50250;BME280;36133;42.522;27.456;2022-07-17T04:38:00;101295.84;;;24.44;51.79
50250;BME280;36133;42.522;27.456;2022-07-17T04:40:25;101197.59;;;24.01;52.47
50250;BME280;36133;42.522;27.456;2022-07-17T04:42:51;101311.66;;;25.01;52.45
50250;BME280;36133;42.522;27.456;2022-07-17T04:45:17;101418.28;;;25.02;52.68
50250;BME280;36133;42.522;27.456;2022-07-17T04:47:43;101452.25;;;25.45;52.75
50250;BME280;36133;42.522;27.456;2022-07-17T04:50:09;101488.84;;;25.67;53.72
50250;BME280;36133;42.522;27.456;2022-07-17T04:52:35;101487.47;;;26.47;51.77
50250;BME280;36133;42.522;27.456;2022-07-17T04:55:00;101385.91;;;25.45;53.15
50250;BME280;36133;42.522;27.456;2022-07-17T04:57:26;101316.56;;;25.56;52.03
50250;BME280;36133;42.522;27.456;2022-07-17T04:59:52;101319.13;;;25.88;51.63
50250;BME280;36133;42.522;27.456;2022-07-17T05:02:17;101491.09;;;27.19;50.35
50250;BME280;36133;42.522;27.456;2022-07-17T05:04:43;101262.13;;;25.77;50.73
50250;BME280;36133;42.522;27.456;2022-07-17T05:07:09;101229.72;;;25.42;49.72
50250;BME280;36133;42.522;27.456;2022-07-17T05:09:34;101402.44;;;27.73;47.99
50250;BME280;36133;42.522;27.456;2022-07-17T05:12:00;101442.81;;;27.35;49.15
50250;BME280;36133;42.522;27.456;2022-07-17T05:14:26;101389.47;;;26.48;50.03
50250;BME280;36133;42.522;27.456;2022-07-17T05:16:51;101190.22;;;25.57;49.46
50250;BME280;36133;42.522;27.456;2022-07-17T05:19:17;101430.97;;;26.74;50.06
50250;BME280;36133;42.522;27.456;2022-07-17T05:21:42;101285.38;;;26.22;49.30
50250;BME280;36133;42.522;27.456;2022-07-17T05:24:08;101415.88;;;27.46;47.76
50250;BME280;36133;42.522;27.456;2022-07-17T05:26:33;101372.19;;;27.18;47.90
50250;BME280;36133;42.522;27.456;2022-07-17T05:28:59;101446.59;;;27.70;47.54
50250;BME280;36133;42.522;27.456;2022-07-17T05:31:24;101262.41;;;27.22;46.12
50250;BME280;36133;42.522;27.456;2022-07-17T05:33:50;101484.25;;;29.09;44.92
50250;BME280;36133;42.522;27.456;2022-07-17T05:36:15;101476.91;;;29.71;43.74
50250;BME280;36133;42.522;27.456;2022-07-17T05:38:41;101500.78;;;31.23;39.65
50250;BME280;36133;42.522;27.456;2022-07-17T05:41:06;101512.81;;;31.04;39.92
50250;BME280;36133;42.522;27.456;2022-07-17T05:43:32;101349.28;;;30.21;39.21
50250;BME280;36133;42.522;27.456;2022-07-17T05:45:58;101507.88;;;31.15;38.25
50250;BME280;36133;42.522;27.456;2022-07-17T05:48:25;101465.19;;;33.14;34.55
50250;BME280;36133;42.522;27.456;2022-07-17T05:50:51;101509.31;;;33.48;33.89
50250;BME280;36133;42.522;27.456;2022-07-17T05:53:17;101449.72;;;32.04;36.65
50250;BME280;36133;42.522;27.456;2022-07-17T05:55:43;101515.91;;;32.76;34.91
50250;BME280;36133;42.522;27.456;2022-07-17T05:58:08;101487.78;;;32.73;30.56
50250;BME280;36133;42.522;27.456;2022-07-17T06:00:35;101401.91;;;32.06;30.35
50250;BME280;36133;42.522;27.456;2022-07-17T06:03:01;101209.25;;;31.84;29.34
50250;BME280;36133;42.522;27.456;2022-07-17T06:05:27;101249.44;;;31.38;29.78
50250;BME280;36133;42.522;27.456;2022-07-17T06:07:53;101121.19;;;31.10;28.95
50250;BME280;36133;42.522;27.456;2022-07-17T06:10:19;101272.13;;;31.81;29.53
50250;BME280;36133;42.522;27.456;2022-07-17T06:12:45;101438.28;;;32.73;28.95
50250;BME280;36133;42.522;27.456;2022-07-17T06:15:11;101343.16;;;31.39;30.46
50250;BME280;36133;42.522;27.456;2022-07-17T06:17:37;101362.53;;;31.58;30.33
50250;BME280;36133;42.522;27.456;2022-07-17T06:20:06;101514.03;;;32.13;30.52
50250;BME280;36133;42.522;27.456;2022-07-17T06:22:32;101315.00;;;31.99;29.08
50250;BME280;36133;42.522;27.456;2022-07-17T06:24:57;101341.94;;;32.26;29.17
50250;BME280;36133;42.522;27.456;2022-07-17T06:27:23;101298.06;;;32.49;28.50
50250;BME280;36133;42.522;27.456;2022-07-17T06:29:49;101192.38;;;31.44;28.67
50250;BME280;36133;42.522;27.456;2022-07-17T06:32:18;101065.16;;;30.76;28.37
50250;BME280;36133;42.522;27.456;2022-07-17T06:34:44;101522.00;;;33.54;28.61
50250;BME280;36133;42.522;27.456;2022-07-17T06:37:10;101275.38;;;31.74;28.75
50250;BME280;36133;42.522;27.456;2022-07-17T06:39:35;101088.53;;;30.66;28.91
50250;BME280;36133;42.522;27.456;2022-07-17T06:42:01;101120.56;;;31.27;29.00
50250;BME280;36133;42.522;27.456;2022-07-17T06:44:36;101325.06;;;31.72;29.21
50250;BME280;36133;42.522;27.456;2022-07-17T06:47:02;101046.84;;;30.47;28.88
50250;BME280;36133;42.522;27.456;2022-07-17T06:49:28;101369.81;;;32.62;28.99
50250;BME280;36133;42.522;27.456;2022-07-17T06:51:56;101347.00;;;33.00;27.95
50250;BME280;36133;42.522;27.456;2022-07-17T06:54:21;101362.25;;;32.62;28.29
50250;BME280;36133;42.522;27.456;2022-07-17T06:56:54;101242.75;;;32.77;27.45
50250;BME280;36133;42.522;27.456;2022-07-17T06:59:20;101311.28;;;32.65;27.87
50250;BME280;36133;42.522;27.456;2022-07-17T07:01:46;101107.19;;;31.38;28.52
50250;BME280;36133;42.522;27.456;2022-07-17T07:04:15;101077.56;;;31.82;27.79
50250;BME280;36133;42.522;27.456;2022-07-17T07:06:41;101481.84;;;34.33;27.79
50250;BME280;36133;42.522;27.456;2022-07-17T07:09:07;101349.06;;;32.32;29.07
50250;BME280;36133;42.522;27.456;2022-07-17T07:11:32;101188.25;;;31.05;29.89
50250;BME280;36133;42.522;27.456;2022-07-17T07:13:58;101022.25;;;30.13;29.36
50250;BME280;36133;42.522;27.456;2022-07-17T07:16:24;101360.41;;;33.20;28.84
50250;BME280;36133;42.522;27.456;2022-07-17T07:18:50;101511.97;;;34.01;28.50
50250;BME280;36133;42.522;27.456;2022-07-17T07:21:16;101229.91;;;33.41;27.34
50250;BME280;36133;42.522;27.456;2022-07-17T07:23:41;101367.97;;;34.84;26.42
50250;BME280;36133;42.522;27.456;2022-07-17T07:26:07;101320.94;;;34.34;26.88
50250;BME280;36133;42.522;27.456;2022-07-17T07:28:33;101344.66;;;35.39;25.85
50250;BME280;36133;42.522;27.456;2022-07-17T07:31:01;101115.13;;;34.23;26.06
50250;BME280;36133;42.522;27.456;2022-07-17T07:33:27;101125.38;;;33.55;26.84
50250;BME280;36133;42.522;27.456;2022-07-17T07:35:56;101379.78;;;35.36;26.88
50250;BME280;36133;42.522;27.456;2022-07-17T07:38:21;101099.53;;;34.93;24.90
50250;BME280;36133;42.522;27.456;2022-07-17T07:40:47;101385.03;;;36.84;24.73
50250;BME280;36133;42.522;27.456;2022-07-17T07:43:13;101382.41;;;36.79;24.12
50250;BME280;36133;42.522;27.456;2022-07-17T07:45:38;101302.97;;;36.82;23.76
50250;BME280;36133;42.522;27.456;2022-07-17T07:48:07;101125.66;;;36.29;23.69
50250;BME280;36133;42.522;27.456;2022-07-17T07:50:32;101526.03;;;37.28;24.79
50250;BME280;36133;42.522;27.456;2022-07-17T07:52:58;101375.34;;;36.60;24.87
50250;BME280;36133;42.522;27.456;2022-07-17T07:55:24;101359.13;;;35.11;27.01
50250;BME280;36133;42.522;27.456;2022-07-17T07:58:07;101185.00;;;35.16;25.07
50250;BME280;36133;42.522;27.456;2022-07-17T08:00:34;101209.81;;;35.06;25.50
50250;BME280;36133;42.522;27.456;2022-07-17T08:03:00;101128.59;;;33.83;26.37
50250;BME280;36133;42.522;27.456;2022-07-17T08:05:26;101149.91;;;34.81;25.31
50250;BME280;36133;42.522;27.456;2022-07-17T08:07:52;101127.34;;;34.77;25.42
50250;BME280;36133;42.522;27.456;2022-07-17T08:10:17;101281.25;;;35.08;26.34
50250;BME280;36133;42.522;27.456;2022-07-17T08:12:43;101201.13;;;35.94;24.82
50250;BME280;36133;42.522;27.456;2022-07-17T08:15:12;101535.94;;;37.46;25.48
50250;BME280;36133;42.522;27.456;2022-07-17T08:17:38;101299.78;;;37.20;24.18
50250;BME280;36133;42.522;27.456;2022-07-17T08:20:04;101330.56;;;38.49;22.87
50250;BME280;36133;42.522;27.456;2022-07-17T08:22:30;101418.91;;;38.97;22.88
50250;BME280;36133;42.522;27.456;2022-07-17T08:24:55;101415.66;;;38.79;23.03
50250;BME280;36133;42.522;27.456;2022-07-17T08:27:21;101523.34;;;38.97;23.51
50250;BME280;36133;42.522;27.456;2022-07-17T08:29:47;101126.38;;;35.69;24.26
50250;BME280;36133;42.522;27.456;2022-07-17T08:32:16;101129.91;;;36.35;24.01
50250;BME280;36133;42.522;27.456;2022-07-17T08:34:42;101419.03;;;37.89;24.07
50250;BME280;36133;42.522;27.456;2022-07-17T08:37:07;101544.66;;;39.38;23.34
50250;BME280;36133;42.522;27.456;2022-07-17T08:39:36;101166.25;;;37.05;23.37
50250;BME280;36133;42.522;27.456;2022-07-17T08:42:06;101401.66;;;39.49;22.38
50250;BME280;36133;42.522;27.456;2022-07-17T08:44:33;101159.00;;;38.04;22.25
50250;BME280;36133;42.522;27.456;2022-07-17T08:46:58;101421.13;;;39.86;21.96
50250;BME280;36133;42.522;27.456;2022-07-17T08:49:25;101562.13;;;41.19;22.60
50250;BME280;36133;42.522;27.456;2022-07-17T08:51:52;101297.69;;;37.29;27.46
50250;BME280;36133;42.522;27.456;2022-07-17T08:54:19;101423.38;;;37.01;28.74
50250;BME280;36133;42.522;27.456;2022-07-17T08:56:45;101288.47;;;36.34;28.61
50250;BME280;36133;42.522;27.456;2022-07-17T08:59:10;101298.56;;;34.72;29.40
50250;BME280;36133;42.522;27.456;2022-07-17T09:01:36;101326.09;;;35.46;28.21
50250;BME280;36133;42.522;27.456;2022-07-17T09:04:04;101363.31;;;38.38;24.67
50250;BME280;36133;42.522;27.456;2022-07-17T09:06:35;101405.03;;;38.60;25.28
50250;BME280;36133;42.522;27.456;2022-07-17T09:11:29;101158.47;;;36.62;24.72
50250;BME280;36133;42.522;27.456;2022-07-17T09:14:06;101431.91;;;36.92;27.94
50250;BME280;36133;42.522;27.456;2022-07-17T09:16:34;101445.66;;;38.03;27.76
50250;BME280;36133;42.522;27.456;2022-07-17T09:19:01;101493.09;;;39.57;26.03
50250;BME280;36133;42.522;27.456;2022-07-17T09:21:32;101121.22;;;36.53;25.18
50250;BME280;36133;42.522;27.456;2022-07-17T09:24:08;101424.59;;;39.79;23.60
50250;BME280;36133;42.522;27.456;2022-07-17T09:26:44;101435.22;;;39.67;23.41
50250;BME280;36133;42.522;27.456;2022-07-17T09:29:10;101178.75;;;39.02;23.09
50250;BME280;36133;42.522;27.456;2022-07-17T09:31:38;101233.53;;;39.01;22.91
50250;BME280;36133;42.522;27.456;2022-07-17T09:34:04;101514.38;;;41.41;21.90
50250;BME280;36133;42.522;27.456;2022-07-17T09:36:31;101193.47;;;39.11;22.41
50250;BME280;36133;42.522;27.456;2022-07-17T09:38:58;101265.72;;;38.49;23.16
50250;BME280;36133;42.522;27.456;2022-07-17T09:41:27;101176.91;;;39.10;22.82
50250;BME280;36133;42.522;27.456;2022-07-17T09:44:00;101166.53;;;38.79;21.80
50250;BME280;36133;42.522;27.456;2022-07-17T09:46:27;101555.44;;;40.69;21.88
50250;BME280;36133;42.522;27.456;2022-07-17T09:49:01;101211.56;;;39.26;22.34
50250;BME280;36133;42.522;27.456;2022-07-17T09:51:33;101560.31;;;42.56;20.91
50250;BME280;36133;42.522;27.456;2022-07-17T09:54:03;101338.94;;;38.30;23.37
50250;BME280;36133;42.522;27.456;2022-07-17T09:56:31;101408.88;;;40.17;22.91
50250;BME280;36133;42.522;27.456;2022-07-17T09:59:04;101229.44;;;37.60;23.92
50250;BME280;36133;42.522;27.456;2022-07-17T10:01:32;101206.44;;;37.86;22.95
50250;BME280;36133;42.522;27.456;2022-07-17T10:04:02;101167.91;;;37.46;23.52
50250;BME280;36133;42.522;27.456;2022-07-17T10:06:28;101334.94;;;41.07;21.42
50250;BME280;36133;42.522;27.456;2022-07-17T10:08:55;101427.19;;;40.42;23.13
50250;BME280;36133;42.522;27.456;2022-07-17T10:11:23;101116.97;;;36.22;25.72
50250;BME280;36133;42.522;27.456;2022-07-17T10:13:53;101329.72;;;37.77;24.67
50250;BME280;36133;42.522;27.456;2022-07-17T10:16:32;101326.13;;;38.04;25.23
50250;BME280;36133;42.522;27.456;2022-07-17T10:18:59;101427.75;;;37.83;25.00
50250;BME280;36133;42.522;27.456;2022-07-17T10:21:29;101322.44;;;37.11;25.04
50250;BME280;36133;42.522;27.456;2022-07-17T10:26:44;101555.09;;;39.22;23.67
50250;BME280;36133;42.522;27.456;2022-07-17T10:29:30;101371.22;;;40.13;21.61
50250;BME280;36133;42.522;27.456;2022-07-17T10:31:57;101159.53;;;37.22;23.76
50250;BME280;36133;42.522;27.456;2022-07-17T10:34:39;101551.66;;;39.29;24.90
50250;BME280;36133;42.522;27.456;2022-07-17T10:37:22;101194.19;;;37.66;24.41
50250;BME280;36133;42.522;27.456;2022-07-17T10:45:30;101429.94;;;40.20;22.61
50250;BME280;36133;42.522;27.456;2022-07-17T10:48:09;101524.66;;;38.72;25.16
50250;BME280;36133;42.522;27.456;2022-07-17T10:50:40;101236.94;;;35.43;26.87
50250;BME280;36133;42.522;27.456;2022-07-17T10:53:11;101275.22;;;37.57;24.72
50250;BME280;36133;42.522;27.456;2022-07-17T10:55:40;101439.19;;;38.71;24.80
50250;BME280;36133;42.522;27.456;2022-07-17T10:58:26;101117.13;;;35.68;25.62
50250;BME280;36133;42.522;27.456;2022-07-17T11:03:39;101527.22;;;39.83;23.95
50250;BME280;36133;42.522;27.456;2022-07-17T11:08:56;101244.59;;;38.75;23.59
50250;BME280;36133;42.522;27.456;2022-07-17T11:11:34;101434.53;;;39.73;23.99
50250;BME280;36133;42.522;27.456;2022-07-17T11:17:01;101546.41;;;39.74;24.57
50250;BME280;36133;42.522;27.456;2022-07-17T11:19:34;101538.69;;;38.84;25.01
50250;BME280;36133;42.522;27.456;2022-07-17T11:22:02;101183.69;;;38.23;23.53
50250;BME280;36133;42.522;27.456;2022-07-17T11:24:39;101425.09;;;39.66;23.05
50250;BME280;36133;42.522;27.456;2022-07-17T11:27:05;101545.06;;;41.16;23.06
50250;BME280;36133;42.522;27.456;2022-07-17T11:29:38;101449.00;;;39.88;23.67
50250;BME280;36133;42.522;27.456;2022-07-17T11:32:04;101303.03;;;38.15;24.01
50250;BME280;36133;42.522;27.456;2022-07-17T11:34:30;101518.06;;;38.95;23.79
50250;BME280;36133;42.522;27.456;2022-07-17T11:37:01;101344.41;;;39.33;22.42
50250;BME280;36133;42.522;27.456;2022-07-17T11:42:12;101423.34;;;39.96;22.33
50250;BME280;36133;42.522;27.456;2022-07-17T11:44:38;101187.41;;;38.43;22.13
50250;BME280;36133;42.522;27.456;2022-07-17T11:47:07;101073.75;;;38.58;21.59
50250;BME280;36133;42.522;27.456;2022-07-17T11:49:35;101319.41;;;39.51;21.80
50250;BME280;36133;42.522;27.456;2022-07-17T11:54:56;101161.63;;;38.60;21.74
50250;BME280;36133;42.522;27.456;2022-07-17T11:57:26;101263.63;;;39.64;21.27
50250;BME280;36133;42.522;27.456;2022-07-17T12:00:06;101204.63;;;39.43;21.92
50250;BME280;36133;42.522;27.456;2022-07-17T12:02:42;101404.63;;;40.88;21.79
50250;BME280;36133;42.522;27.456;2022-07-17T12:05:09;101202.72;;;38.92;21.95
50250;BME280;36133;42.522;27.456;2022-07-17T12:07:46;101293.00;;;41.42;20.18
50250;BME280;36133;42.522;27.456;2022-07-17T12:10:19;101519.66;;;43.19;20.37
50250;BME280;36133;42.522;27.456;2022-07-17T12:13:06;101413.34;;;39.83;22.45
50250;BME280;36133;42.522;27.456;2022-07-17T12:15:36;101516.47;;;42.23;21.29
50250;BME280;36133;42.522;27.456;2022-07-17T12:18:03;101384.19;;;41.78;20.95
50250;BME280;36133;42.522;27.456;2022-07-17T12:20:46;101393.50;;;42.79;20.08
50250;BME280;36133;42.522;27.456;2022-07-17T12:23:33;101517.22;;;42.50;20.41
50250;BME280;36133;42.522;27.456;2022-07-17T12:26:28;101523.56;;;43.44;19.83
50250;BME280;36133;42.522;27.456;2022-07-17T12:28:55;101135.56;;;40.02;20.35
50250;BME280;36133;42.522;27.456;2022-07-17T12:31:20;101188.88;;;41.66;19.51
50250;BME280;36133;42.522;27.456;2022-07-17T12:33:50;101515.41;;;41.78;20.79
50250;BME280;36133;42.522;27.456;2022-07-17T12:36:15;101523.34;;;40.23;22.80
50250;BME280;36133;42.522;27.456;2022-07-17T12:38:41;101090.84;;;36.58;24.42
50250;BME280;36133;42.522;27.456;2022-07-17T12:41:07;101308.00;;;37.01;25.78
50250;BME280;36133;42.522;27.456;2022-07-17T12:43:32;101308.03;;;39.12;22.99
50250;BME280;36133;42.522;27.456;2022-07-17T12:45:58;101391.81;;;39.75;22.91
50250;BME280;36133;42.522;27.456;2022-07-17T12:48:33;101527.97;;;37.48;26.28
50250;BME280;36133;42.522;27.456;2022-07-17T12:50:58;101260.47;;;34.16;28.59
50250;BME280;36133;42.522;27.456;2022-07-17T12:53:24;101074.94;;;33.72;28.33
50250;BME280;36133;42.522;27.456;2022-07-17T12:55:49;101236.66;;;33.66;29.37
50250;BME280;36133;42.522;27.456;2022-07-17T12:58:15;101368.94;;;33.23;31.52
50250;BME280;36133;42.522;27.456;2022-07-17T13:00:44;101058.63;;;33.10;29.87
50250;BME280;36133;42.522;27.456;2022-07-17T13:03:10;101505.22;;;34.11;32.33
50250;BME280;36133;42.522;27.456;2022-07-17T13:05:36;101174.56;;;32.86;31.88